Sainte-Cecile-De-Masham, Canada
Current Conditions -  °F | °C
As of 9:00 PM on Tuesday 27 Jan 2015 (Local Time) from CYND Reporting Station
Broken Clouds Broken Clouds  
Wind Chill:   Ceiling: 22000
Heat Index: 12°   Visibility: 15mi
Dew Point: -6°   Wind: 7mph
Humidity: 45%   Direction: 360°N
Pressure: 30.07"   Gusts: NA
Location:  45.65°N, 76.03°W
Report Text: CYND 280200Z 36006KT 15SM BKN220 M11/M21 A3007 RMK CI6 LAST OBS/NEXT 281200 UTC SLP188
Loading
Personal Weather Stations






























Interactive Weather Map New forecast layout! Learn more

10-Day Weather Forecast

Advertisements
Track Severe Weather on mobile